UAL28 MPTO-SPZO
Flight info
| Callsign | UAL28 |
|---|---|
| Flight time | 3h 21m |
| Altitude | 35000 |
| Route | OREPI MILAT UM674 QIT UP408 ANKUG UT335 URC |
| Aircraft | B753/M-SDE3HL3/LS3 |
Departure
| Time | 2026-04-20 13:07 |
|---|---|
| Airport | Tocumen International Airport (MPTO) |
Arrival
| Time | 2026-04-20 16:29 |
|---|---|
| Airport | Alejandro Velasco Astete International Airport (SPZO) |
| Time | Latitude | Longitude | Altitude | Speed | Heading |
|---|---|---|---|---|---|
| 2026-04-20 12:24 | 9.06767 | -79.38523 | 145 ft | 0 kts | 340° |
| 2026-04-20 12:57 | 9.06761 | -79.38521 | 144 ft | 2 kts | 340° |
| 2026-04-20 12:58 | 9.06747 | -79.38515 | 144 ft | 2 kts | 340° |
| 2026-04-20 12:58 | 9.06733 | -79.38510 | 144 ft | 2 kts | 340° |
| 2026-04-20 12:58 | 9.06718 | -79.38504 | 144 ft | 2 kts | 328° |
| 2026-04-20 12:58 | 9.06707 | -79.38495 | 144 ft | 2 kts | 310° |
| 2026-04-20 12:59 | 9.06698 | -79.38482 | 144 ft | 2 kts | 297° |
| 2026-04-20 12:59 | 9.06689 | -79.38471 | 144 ft | 2 kts | 332° |
| 2026-04-20 12:59 | 9.06674 | -79.38466 | 144 ft | 2 kts | 355° |
| 2026-04-20 12:59 | 9.06660 | -79.38467 | 144 ft | 2 kts | 19° |
| 2026-04-20 13:00 | 9.06646 | -79.38474 | 144 ft | 2 kts | 33° |
| 2026-04-20 13:00 | 9.06634 | -79.38482 | 144 ft | 2 kts | 28° |
| 2026-04-20 13:00 | 9.06621 | -79.38490 | 144 ft | 2 kts | 28° |
| 2026-04-20 13:00 | 9.06616 | -79.38492 | 144 ft | 0 kts | 29° |
| 2026-04-20 13:02 | 9.06636 | -79.38480 | 144 ft | 1 kts | 36° |
| 2026-04-20 13:02 | 9.06645 | -79.38471 | 144 ft | 4 kts | 44° |
| 2026-04-20 13:03 | 9.06655 | -79.38406 | 144 ft | 16 kts | 88° |
| 2026-04-20 13:03 | 9.06754 | -79.38319 | 144 ft | 25 kts | 30° |
| 2026-04-20 13:03 | 9.06935 | -79.38215 | 144 ft | 30 kts | 29° |
| 2026-04-20 13:03 | 9.07109 | -79.38116 | 144 ft | 26 kts | 27° |
| 2026-04-20 13:04 | 9.07205 | -79.38057 | 144 ft | 9 kts | 50° |
| 2026-04-20 13:04 | 9.07211 | -79.38007 | 144 ft | 6 kts | 110° |
| 2026-04-20 13:04 | 9.07193 | -79.37974 | 144 ft | 4 kts | 119° |
| 2026-04-20 13:04 | 9.07161 | -79.37933 | 144 ft | 10 kts | 141° |
| 2026-04-20 13:05 | 9.07104 | -79.37933 | 144 ft | 0 kts | 207° |
| 2026-04-20 13:06 | 9.07013 | -79.37981 | 144 ft | 40 kts | 208° |
| 2026-04-20 13:06 | 9.06603 | -79.38214 | 144 ft | 95 kts | 209° |
| 2026-04-20 13:06 | 9.05863 | -79.38635 | 145 ft | 147 kts | 209° |
| 2026-04-20 13:07 | 9.04819 | -79.39227 | 189 ft | 190 kts | 209° |
| 2026-04-20 13:07 | 9.03661 | -79.39896 | 731 ft | 196 kts | 210° |
| 2026-04-20 13:07 | 9.02498 | -79.40580 | 1413 ft | 191 kts | 210° |
| 2026-04-20 13:07 | 9.01370 | -79.41214 | 1735 ft | 193 kts | 209° |
| 2026-04-20 13:08 | 9.00093 | -79.41927 | 1585 ft | 218 kts | 209° |
| 2026-04-20 13:08 | 8.98773 | -79.42682 | 1967 ft | 223 kts | 209° |
| 2026-04-20 13:08 | 8.97409 | -79.43456 | 2435 ft | 226 kts | 209° |
| 2026-04-20 13:08 | 8.95994 | -79.44252 | 2698 ft | 242 kts | 206° |
| 2026-04-20 13:09 | 8.94330 | -79.44650 | 3066 ft | 251 kts | 175° |
| 2026-04-20 13:09 | 8.92722 | -79.44123 | 3703 ft | 250 kts | 146° |
| 2026-04-20 13:09 | 8.91496 | -79.42821 | 3911 ft | 268 kts | 117° |
| 2026-04-20 13:09 | 8.90967 | -79.41026 | 4590 ft | 266 kts | 101° |
| 2026-04-20 13:10 | 8.90589 | -79.39185 | 5175 ft | 270 kts | 106° |
| 2026-04-20 13:10 | 8.89892 | -79.37428 | 5777 ft | 272 kts | 118° |
| 2026-04-20 13:10 | 8.88903 | -79.35790 | 6376 ft | 274 kts | 124° |
| 2026-04-20 13:10 | 8.87782 | -79.34232 | 6961 ft | 276 kts | 128° |
| 2026-04-20 13:11 | 8.86597 | -79.32725 | 7538 ft | 279 kts | 129° |
| 2026-04-20 13:11 | 8.85347 | -79.31207 | 8114 ft | 281 kts | 130° |
| 2026-04-20 13:11 | 8.84085 | -79.29713 | 8677 ft | 283 kts | 131° |
| 2026-04-20 13:11 | 8.82790 | -79.28200 | 9237 ft | 286 kts | 131° |
| 2026-04-20 13:12 | 8.81492 | -79.26693 | 9785 ft | 288 kts | 131° |
| 2026-04-20 13:12 | 8.80155 | -79.25147 | 10295 ft | 292 kts | 131° |
| 2026-04-20 13:12 | 8.78768 | -79.23547 | 10356 ft | 314 kts | 131° |
| 2026-04-20 13:12 | 8.77282 | -79.21835 | 10381 ft | 337 kts | 131° |
| 2026-04-20 13:13 | 8.75693 | -79.20003 | 10588 ft | 353 kts | 131° |
| 2026-04-20 13:13 | 8.74085 | -79.18153 | 11367 ft | 351 kts | 131° |
| 2026-04-20 13:13 | 8.72447 | -79.16267 | 11922 ft | 357 kts | 131° |
| 2026-04-20 13:13 | 8.70814 | -79.14387 | 12564 ft | 359 kts | 131° |
| 2026-04-20 13:14 | 8.69171 | -79.12495 | 13150 ft | 363 kts | 131° |
| 2026-04-20 13:14 | 8.67511 | -79.10586 | 13746 ft | 366 kts | 131° |
| 2026-04-20 13:14 | 8.65830 | -79.08652 | 14329 ft | 369 kts | 131° |
| 2026-04-20 13:14 | 8.64036 | -79.06789 | 14897 ft | 372 kts | 141° |
| 2026-04-20 13:15 | 8.61851 | -79.05425 | 15440 ft | 375 kts | 157° |
| 2026-04-20 13:15 | 8.59343 | -79.04697 | 15978 ft | 378 kts | 173° |
| 2026-04-20 13:15 | 8.56726 | -79.04676 | 16501 ft | 381 kts | 188° |
| 2026-04-20 13:15 | 8.54165 | -79.05370 | 17015 ft | 384 kts | 204° |
| 2026-04-20 13:16 | 8.51870 | -79.06728 | 17517 ft | 387 kts | 218° |
| 2026-04-20 13:16 | 8.49849 | -79.08536 | 18027 ft | 389 kts | 223° |
| 2026-04-20 13:16 | 8.47824 | -79.10375 | 18528 ft | 392 kts | 219° |
| 2026-04-20 13:16 | 8.45563 | -79.11876 | 18998 ft | 395 kts | 206° |
| 2026-04-20 13:17 | 8.43024 | -79.12964 | 19476 ft | 398 kts | 199° |
| 2026-04-20 13:17 | 8.40387 | -79.13813 | 19944 ft | 401 kts | 196° |
| 2026-04-20 13:17 | 8.37718 | -79.14546 | 20399 ft | 404 kts | 194° |
| 2026-04-20 13:17 | 8.34997 | -79.15228 | 20848 ft | 406 kts | 193° |
| 2026-04-20 13:18 | 8.32228 | -79.15887 | 21291 ft | 409 kts | 193° |
| 2026-04-20 13:18 | 8.29474 | -79.16522 | 21719 ft | 412 kts | 193° |
| 2026-04-20 13:18 | 8.26679 | -79.17156 | 22141 ft | 414 kts | 192° |
| 2026-04-20 13:18 | 8.23841 | -79.17795 | 22557 ft | 417 kts | 192° |
| 2026-04-20 13:19 | 8.21006 | -79.18429 | 22961 ft | 419 kts | 192° |
| 2026-04-20 13:19 | 8.18195 | -79.19057 | 23352 ft | 422 kts | 192° |
| 2026-04-20 13:19 | 8.15337 | -79.19693 | 23738 ft | 424 kts | 192° |
| 2026-04-20 13:19 | 8.12429 | -79.20341 | 24120 ft | 427 kts | 192° |
| 2026-04-20 13:20 | 8.09557 | -79.20980 | 24487 ft | 429 kts | 192° |
| 2026-04-20 13:20 | 8.06618 | -79.21634 | 24853 ft | 432 kts | 192° |
| 2026-04-20 13:20 | 8.03703 | -79.22282 | 25206 ft | 434 kts | 192° |
| 2026-04-20 13:20 | 8.00755 | -79.22938 | 25554 ft | 436 kts | 192° |
| 2026-04-20 13:21 | 7.97808 | -79.23593 | 25893 ft | 438 kts | 192° |
| 2026-04-20 13:21 | 7.94810 | -79.24260 | 26228 ft | 441 kts | 192° |
| 2026-04-20 13:21 | 7.91816 | -79.24925 | 26555 ft | 443 kts | 192° |
| 2026-04-20 13:21 | 7.88814 | -79.25592 | 26874 ft | 445 kts | 192° |
| 2026-04-20 13:22 | 7.85810 | -79.26260 | 27184 ft | 447 kts | 192° |
| 2026-04-20 13:22 | 7.82749 | -79.26939 | 27493 ft | 449 kts | 192° |
| 2026-04-20 13:22 | 7.79706 | -79.27615 | 27792 ft | 451 kts | 192° |
| 2026-04-20 13:22 | 7.76670 | -79.28289 | 28082 ft | 453 kts | 192° |
| 2026-04-20 13:23 | 7.73593 | -79.28973 | 28369 ft | 455 kts | 192° |
| 2026-04-20 13:23 | 7.70497 | -79.29660 | 28651 ft | 457 kts | 192° |
| 2026-04-20 13:23 | 7.67394 | -79.30349 | 28927 ft | 459 kts | 192° |
| 2026-04-20 13:23 | 7.64267 | -79.31042 | 29197 ft | 461 kts | 192° |
| 2026-04-20 13:24 | 7.61142 | -79.31736 | 29461 ft | 463 kts | 192° |
| 2026-04-20 13:24 | 7.57986 | -79.32436 | 29721 ft | 465 kts | 192° |
| 2026-04-20 13:24 | 7.54831 | -79.33137 | 29974 ft | 467 kts | 192° |
| 2026-04-20 13:24 | 7.51682 | -79.33835 | 30221 ft | 469 kts | 192° |
| 2026-04-20 13:25 | 7.48506 | -79.34539 | 30462 ft | 470 kts | 192° |
| 2026-04-20 13:25 | 7.45308 | -79.35249 | 30699 ft | 472 kts | 192° |
| 2026-04-20 13:25 | 7.42126 | -79.35954 | 30927 ft | 474 kts | 192° |
| 2026-04-20 13:25 | 7.38894 | -79.36671 | 31171 ft | 475 kts | 192° |
| 2026-04-20 13:26 | 7.35698 | -79.37380 | 31488 ft | 474 kts | 192° |
| 2026-04-20 13:26 | 7.32493 | -79.38045 | 31788 ft | 473 kts | 188° |
| 2026-04-20 13:26 | 7.29204 | -79.38306 | 32053 ft | 473 kts | 179° |
| 2026-04-20 13:26 | 7.25978 | -79.38088 | 32310 ft | 472 kts | 174° |
| 2026-04-20 13:27 | 7.22689 | -79.37723 | 32585 ft | 471 kts | 174° |
| 2026-04-20 13:27 | 7.19474 | -79.37363 | 32843 ft | 471 kts | 173° |
| 2026-04-20 13:27 | 7.16248 | -79.36991 | 33091 ft | 470 kts | 173° |
| 2026-04-20 13:27 | 7.12985 | -79.36610 | 33335 ft | 470 kts | 173° |
| 2026-04-20 13:28 | 7.09767 | -79.36232 | 33568 ft | 469 kts | 173° |
| 2026-04-20 13:28 | 7.06535 | -79.35849 | 33795 ft | 469 kts | 173° |
| 2026-04-20 13:28 | 7.03298 | -79.35465 | 34016 ft | 468 kts | 173° |
| 2026-04-20 13:28 | 7.00073 | -79.35082 | 34228 ft | 468 kts | 173° |
| 2026-04-20 13:29 | 6.96852 | -79.34699 | 34433 ft | 468 kts | 173° |
| 2026-04-20 13:29 | 6.93630 | -79.34315 | 34632 ft | 467 kts | 173° |
| 2026-04-20 13:29 | 6.90433 | -79.33935 | 34822 ft | 467 kts | 173° |
| 2026-04-20 13:29 | 6.87218 | -79.33553 | 34986 ft | 466 kts | 173° |
| 2026-04-20 13:30 | 6.84007 | -79.33170 | 34999 ft | 467 kts | 173° |
| 2026-04-20 13:30 | 6.77573 | -79.32404 | 34999 ft | 465 kts | 173° |
| 2026-04-20 13:31 | 6.71178 | -79.31643 | 35000 ft | 465 kts | 173° |
| 2026-04-20 13:31 | 6.64773 | -79.30881 | 34999 ft | 465 kts | 173° |
| 2026-04-20 13:32 | 6.58391 | -79.30122 | 35000 ft | 465 kts | 173° |
| 2026-04-20 13:32 | 6.51993 | -79.29362 | 35000 ft | 465 kts | 173° |
| 2026-04-20 13:33 | 6.45558 | -79.28597 | 35000 ft | 465 kts | 173° |
| 2026-04-20 13:33 | 6.39180 | -79.27839 | 35000 ft | 465 kts | 173° |
| 2026-04-20 13:34 | 6.32740 | -79.27074 | 35000 ft | 465 kts | 173° |
| 2026-04-20 13:34 | 6.26337 | -79.26314 | 35000 ft | 465 kts | 173° |
| 2026-04-20 13:35 | 6.19933 | -79.25553 | 35000 ft | 465 kts | 173° |
| 2026-04-20 13:35 | 6.13538 | -79.24794 | 35000 ft | 465 kts | 173° |
| 2026-04-20 13:36 | 6.07133 | -79.24034 | 35000 ft | 465 kts | 173° |
| 2026-04-20 13:36 | 6.00720 | -79.23273 | 35000 ft | 465 kts | 173° |
| 2026-04-20 13:37 | 5.94338 | -79.22516 | 35000 ft | 465 kts | 173° |
| 2026-04-20 13:37 | 5.87906 | -79.21767 | 35000 ft | 465 kts | 173° |
| 2026-04-20 13:38 | 5.81501 | -79.21023 | 35000 ft | 465 kts | 173° |
| 2026-04-20 13:38 | 5.75110 | -79.20280 | 35000 ft | 465 kts | 173° |
| 2026-04-20 13:39 | 5.68713 | -79.19537 | 35000 ft | 465 kts | 173° |
| 2026-04-20 13:39 | 5.62297 | -79.18793 | 35000 ft | 465 kts | 173° |
| 2026-04-20 13:40 | 5.55924 | -79.18053 | 35000 ft | 465 kts | 173° |
| 2026-04-20 13:40 | 5.49493 | -79.17306 | 35000 ft | 465 kts | 173° |
| 2026-04-20 13:41 | 5.43078 | -79.16563 | 35000 ft | 465 kts | 173° |
| 2026-04-20 13:41 | 5.36692 | -79.15822 | 35000 ft | 465 kts | 173° |
| 2026-04-20 13:42 | 5.30298 | -79.15080 | 35000 ft | 465 kts | 173° |
| 2026-04-20 13:42 | 5.20697 | -79.13966 | 35000 ft | 465 kts | 173° |
| 2026-04-20 13:43 | 5.14260 | -79.13221 | 35000 ft | 465 kts | 173° |
| 2026-04-20 13:43 | 5.07860 | -79.12479 | 35000 ft | 465 kts | 173° |
| 2026-04-20 13:44 | 5.01464 | -79.11738 | 35000 ft | 465 kts | 173° |
| 2026-04-20 13:44 | 4.95078 | -79.10998 | 35000 ft | 465 kts | 173° |
| 2026-04-20 13:45 | 4.88674 | -79.10256 | 35000 ft | 465 kts | 173° |
| 2026-04-20 13:45 | 4.82251 | -79.09512 | 35000 ft | 465 kts | 173° |
| 2026-04-20 13:46 | 4.75831 | -79.08768 | 35000 ft | 465 kts | 173° |
| 2026-04-20 13:46 | 4.69419 | -79.08027 | 35000 ft | 465 kts | 173° |
| 2026-04-20 13:47 | 4.63046 | -79.07289 | 35000 ft | 465 kts | 173° |
| 2026-04-20 13:47 | 4.56637 | -79.06548 | 35000 ft | 465 kts | 173° |
| 2026-04-20 13:48 | 4.50221 | -79.05805 | 35000 ft | 465 kts | 173° |
| 2026-04-20 13:48 | 4.43796 | -79.05061 | 35000 ft | 465 kts | 173° |
| 2026-04-20 13:49 | 4.37407 | -79.04323 | 35000 ft | 465 kts | 173° |
| 2026-04-20 13:49 | 4.31020 | -79.03584 | 35000 ft | 465 kts | 173° |
| 2026-04-20 13:50 | 4.24595 | -79.02841 | 35000 ft | 465 kts | 173° |
| 2026-04-20 13:50 | 4.18214 | -79.02103 | 35000 ft | 465 kts | 173° |
| 2026-04-20 13:51 | 4.11782 | -79.01360 | 35000 ft | 465 kts | 173° |
| 2026-04-20 13:51 | 4.05392 | -79.00622 | 35000 ft | 465 kts | 173° |
| 2026-04-20 13:52 | 3.98983 | -78.99881 | 35000 ft | 465 kts | 173° |
| 2026-04-20 13:52 | 3.92603 | -78.99144 | 35000 ft | 465 kts | 173° |
| 2026-04-20 13:53 | 3.86160 | -78.98400 | 35000 ft | 465 kts | 173° |
| 2026-04-20 13:53 | 3.79766 | -78.97662 | 35000 ft | 465 kts | 173° |
| 2026-04-20 13:54 | 3.73358 | -78.96922 | 35000 ft | 465 kts | 173° |
| 2026-04-20 13:54 | 3.66979 | -78.96185 | 35000 ft | 465 kts | 173° |
| 2026-04-20 13:55 | 3.60537 | -78.95441 | 35000 ft | 465 kts | 173° |
| 2026-04-20 13:55 | 3.54165 | -78.94706 | 35000 ft | 465 kts | 173° |
| 2026-04-20 13:56 | 3.47740 | -78.93964 | 35000 ft | 465 kts | 173° |
| 2026-04-20 13:56 | 3.41336 | -78.93225 | 35000 ft | 465 kts | 173° |
| 2026-04-20 13:57 | 3.34931 | -78.92487 | 35000 ft | 465 kts | 173° |
| 2026-04-20 13:57 | 3.28539 | -78.91749 | 35000 ft | 465 kts | 173° |
| 2026-04-20 13:58 | 3.22150 | -78.91012 | 35000 ft | 465 kts | 173° |
| 2026-04-20 13:58 | 3.15723 | -78.90271 | 35000 ft | 465 kts | 173° |
| 2026-04-20 13:59 | 3.09295 | -78.89529 | 35000 ft | 465 kts | 173° |
| 2026-04-20 13:59 | 3.02928 | -78.88796 | 35000 ft | 465 kts | 173° |
| 2026-04-20 14:00 | 2.96500 | -78.88054 | 35000 ft | 465 kts | 173° |
| 2026-04-20 14:00 | 2.90076 | -78.87314 | 35000 ft | 465 kts | 173° |
| 2026-04-20 14:01 | 2.83671 | -78.86575 | 35000 ft | 465 kts | 173° |
| 2026-04-20 14:01 | 2.77234 | -78.85834 | 35000 ft | 465 kts | 173° |
| 2026-04-20 14:02 | 2.70833 | -78.85096 | 35000 ft | 465 kts | 173° |
| 2026-04-20 14:02 | 2.64448 | -78.84360 | 35000 ft | 465 kts | 173° |
| 2026-04-20 14:03 | 2.58032 | -78.83621 | 35000 ft | 465 kts | 173° |
| 2026-04-20 14:03 | 2.51606 | -78.82881 | 35000 ft | 465 kts | 173° |
| 2026-04-20 14:04 | 2.45222 | -78.82146 | 35000 ft | 465 kts | 173° |
| 2026-04-20 14:04 | 2.38807 | -78.81406 | 35000 ft | 465 kts | 173° |
| 2026-04-20 14:05 | 2.32406 | -78.80669 | 35000 ft | 465 kts | 173° |
| 2026-04-20 14:05 | 2.25979 | -78.79929 | 35000 ft | 465 kts | 173° |
| 2026-04-20 14:06 | 2.19571 | -78.79192 | 35000 ft | 465 kts | 173° |
| 2026-04-20 14:06 | 2.13153 | -78.78452 | 35000 ft | 465 kts | 173° |
| 2026-04-20 14:07 | 2.06746 | -78.77715 | 35000 ft | 465 kts | 173° |
| 2026-04-20 14:07 | 2.00342 | -78.76977 | 35000 ft | 465 kts | 173° |
| 2026-04-20 14:08 | 1.93909 | -78.76237 | 35000 ft | 465 kts | 173° |
| 2026-04-20 14:08 | 1.87510 | -78.75500 | 35000 ft | 465 kts | 173° |
| 2026-04-20 14:09 | 1.81088 | -78.74759 | 35000 ft | 465 kts | 173° |
| 2026-04-20 14:09 | 1.74710 | -78.73972 | 34999 ft | 465 kts | 173° |
| 2026-04-20 14:10 | 1.68314 | -78.73183 | 35000 ft | 465 kts | 173° |
| 2026-04-20 14:10 | 1.61891 | -78.72390 | 35000 ft | 465 kts | 173° |
| 2026-04-20 14:11 | 1.55510 | -78.71603 | 35000 ft | 465 kts | 173° |
| 2026-04-20 14:11 | 1.49087 | -78.70811 | 35000 ft | 465 kts | 173° |
| 2026-04-20 14:12 | 1.42671 | -78.70019 | 35000 ft | 465 kts | 173° |
| 2026-04-20 14:12 | 1.36257 | -78.69228 | 35000 ft | 465 kts | 173° |
| 2026-04-20 14:13 | 1.29896 | -78.68423 | 35000 ft | 465 kts | 172° |
| 2026-04-20 14:13 | 1.23489 | -78.67586 | 35000 ft | 465 kts | 172° |
| 2026-04-20 14:14 | 1.17074 | -78.66749 | 35000 ft | 465 kts | 172° |
| 2026-04-20 14:14 | 1.10680 | -78.65916 | 35000 ft | 465 kts | 172° |
| 2026-04-20 14:15 | 1.04290 | -78.65082 | 35000 ft | 465 kts | 172° |
| 2026-04-20 14:15 | 0.97911 | -78.64250 | 35000 ft | 465 kts | 172° |
| 2026-04-20 14:16 | 0.91512 | -78.63416 | 35000 ft | 465 kts | 172° |
| 2026-04-20 14:16 | 0.85128 | -78.62584 | 35000 ft | 465 kts | 172° |
| 2026-04-20 14:17 | 0.78697 | -78.61746 | 35000 ft | 465 kts | 172° |
| 2026-04-20 14:17 | 0.72303 | -78.60912 | 35000 ft | 465 kts | 172° |
| 2026-04-20 14:18 | 0.65923 | -78.60081 | 35000 ft | 465 kts | 172° |
| 2026-04-20 14:18 | 0.59533 | -78.59248 | 35000 ft | 465 kts | 172° |
| 2026-04-20 14:19 | 0.53143 | -78.58415 | 35000 ft | 465 kts | 172° |
| 2026-04-20 14:19 | 0.46742 | -78.57587 | 35000 ft | 465 kts | 173° |
| 2026-04-20 14:20 | 0.40333 | -78.56769 | 35000 ft | 465 kts | 173° |
| 2026-04-20 14:20 | 0.33929 | -78.55951 | 35000 ft | 465 kts | 173° |
| 2026-04-20 14:21 | 0.27541 | -78.55135 | 35000 ft | 465 kts | 173° |
| 2026-04-20 14:21 | 0.21113 | -78.54314 | 35000 ft | 465 kts | 173° |
| 2026-04-20 14:22 | 0.14736 | -78.53499 | 35000 ft | 465 kts | 173° |
| 2026-04-20 14:22 | 0.08330 | -78.52680 | 35000 ft | 465 kts | 173° |
| 2026-04-20 14:23 | 0.01941 | -78.51864 | 35000 ft | 465 kts | 173° |
| 2026-04-20 14:23 | -0.04438 | -78.50852 | 35006 ft | 465 kts | 164° |
| 2026-04-20 14:24 | -0.10602 | -78.48959 | 34999 ft | 465 kts | 162° |
| 2026-04-20 14:24 | -0.16767 | -78.47025 | 34999 ft | 465 kts | 162° |
| 2026-04-20 14:25 | -0.22908 | -78.45085 | 35000 ft | 465 kts | 162° |
| 2026-04-20 14:25 | -0.29066 | -78.43137 | 35000 ft | 465 kts | 162° |
| 2026-04-20 14:26 | -0.35198 | -78.41196 | 35000 ft | 465 kts | 162° |
| 2026-04-20 14:26 | -0.41363 | -78.39243 | 35000 ft | 465 kts | 162° |
| 2026-04-20 14:27 | -0.47485 | -78.37304 | 35000 ft | 465 kts | 162° |
| 2026-04-20 14:27 | -0.53639 | -78.35355 | 35000 ft | 465 kts | 162° |
| 2026-04-20 14:28 | -0.59761 | -78.33416 | 35000 ft | 465 kts | 162° |
| 2026-04-20 14:28 | -0.65910 | -78.31468 | 35000 ft | 465 kts | 162° |
| 2026-04-20 14:29 | -0.72071 | -78.29517 | 35000 ft | 465 kts | 162° |
| 2026-04-20 14:29 | -0.78198 | -78.27576 | 35000 ft | 465 kts | 162° |
| 2026-04-20 14:30 | -0.84349 | -78.25627 | 35000 ft | 465 kts | 162° |
| 2026-04-20 14:30 | -0.90502 | -78.23678 | 35000 ft | 465 kts | 162° |
| 2026-04-20 14:31 | -0.96638 | -78.21734 | 35000 ft | 465 kts | 162° |
| 2026-04-20 14:31 | -1.02778 | -78.19788 | 35000 ft | 465 kts | 162° |
| 2026-04-20 14:32 | -1.08914 | -78.17844 | 35000 ft | 465 kts | 162° |
| 2026-04-20 14:32 | -1.15074 | -78.15894 | 34999 ft | 465 kts | 162° |
| 2026-04-20 14:33 | -1.21251 | -78.13940 | 35000 ft | 465 kts | 162° |
| 2026-04-20 14:33 | -1.27365 | -78.12005 | 35000 ft | 465 kts | 162° |
| 2026-04-20 14:34 | -1.33517 | -78.10058 | 35000 ft | 465 kts | 162° |
| 2026-04-20 14:34 | -1.39679 | -78.08108 | 35000 ft | 465 kts | 162° |
| 2026-04-20 14:35 | -1.45824 | -78.06163 | 35000 ft | 465 kts | 162° |
| 2026-04-20 14:35 | -1.51939 | -78.04110 | 35003 ft | 465 kts | 156° |
| 2026-04-20 14:36 | -1.57763 | -78.01406 | 34999 ft | 465 kts | 155° |
| 2026-04-20 14:36 | -1.63599 | -77.98666 | 34999 ft | 465 kts | 155° |
| 2026-04-20 14:37 | -1.69420 | -77.95924 | 35000 ft | 465 kts | 155° |
| 2026-04-20 14:37 | -1.75280 | -77.93160 | 35000 ft | 465 kts | 155° |
| 2026-04-20 14:38 | -1.81106 | -77.90411 | 35000 ft | 465 kts | 155° |
| 2026-04-20 14:38 | -1.86929 | -77.87662 | 35000 ft | 465 kts | 155° |
| 2026-04-20 14:39 | -1.92770 | -77.84905 | 35000 ft | 465 kts | 155° |
| 2026-04-20 14:39 | -1.98573 | -77.82166 | 35000 ft | 465 kts | 155° |
| 2026-04-20 14:40 | -2.04421 | -77.79404 | 35000 ft | 465 kts | 155° |
| 2026-04-20 14:40 | -2.10244 | -77.76655 | 35000 ft | 465 kts | 155° |
| 2026-04-20 14:41 | -2.16060 | -77.73909 | 35000 ft | 465 kts | 155° |
| 2026-04-20 14:41 | -2.21884 | -77.71159 | 35000 ft | 465 kts | 155° |
| 2026-04-20 14:42 | -2.27729 | -77.68398 | 35000 ft | 465 kts | 155° |
| 2026-04-20 14:42 | -2.33550 | -77.65649 | 35000 ft | 465 kts | 155° |
| 2026-04-20 14:43 | -2.39380 | -77.62895 | 35000 ft | 465 kts | 155° |
| 2026-04-20 14:43 | -2.45203 | -77.60144 | 35000 ft | 465 kts | 155° |
| 2026-04-20 14:44 | -2.51034 | -77.57389 | 35000 ft | 465 kts | 155° |
| 2026-04-20 14:44 | -2.56846 | -77.54643 | 35000 ft | 465 kts | 155° |
| 2026-04-20 14:45 | -2.62688 | -77.51882 | 35000 ft | 465 kts | 155° |
| 2026-04-20 14:45 | -2.68522 | -77.49125 | 35000 ft | 465 kts | 155° |
| 2026-04-20 14:46 | -2.74319 | -77.46385 | 35000 ft | 465 kts | 155° |
| 2026-04-20 14:46 | -2.80163 | -77.43623 | 35000 ft | 465 kts | 155° |
| 2026-04-20 14:47 | -2.85983 | -77.40871 | 35000 ft | 465 kts | 155° |
| 2026-04-20 14:48 | -2.94572 | -77.36815 | 35000 ft | 466 kts | 155° |
| 2026-04-20 14:48 | -3.00447 | -77.34041 | 35000 ft | 466 kts | 155° |
| 2026-04-20 14:49 | -3.06279 | -77.31287 | 35000 ft | 466 kts | 155° |
| 2026-04-20 14:49 | -3.12097 | -77.28539 | 35000 ft | 466 kts | 155° |
| 2026-04-20 14:50 | -3.17928 | -77.25784 | 35000 ft | 466 kts | 155° |
| 2026-04-20 14:50 | -3.23773 | -77.23023 | 35000 ft | 466 kts | 155° |
| 2026-04-20 14:51 | -3.29625 | -77.20257 | 35000 ft | 466 kts | 155° |
| 2026-04-20 14:51 | -3.35461 | -77.17499 | 35000 ft | 466 kts | 155° |
| 2026-04-20 14:52 | -3.41273 | -77.14751 | 35000 ft | 466 kts | 155° |
| 2026-04-20 14:52 | -3.47113 | -77.11991 | 35000 ft | 466 kts | 155° |
| 2026-04-20 14:53 | -3.52960 | -77.09227 | 35000 ft | 466 kts | 155° |
| 2026-04-20 14:53 | -3.58795 | -77.06467 | 35000 ft | 466 kts | 155° |
| 2026-04-20 14:54 | -3.64625 | -77.03710 | 35000 ft | 466 kts | 155° |
| 2026-04-20 14:54 | -3.70454 | -77.00954 | 35000 ft | 466 kts | 155° |
| 2026-04-20 14:55 | -3.76269 | -76.98202 | 35000 ft | 466 kts | 155° |
| 2026-04-20 14:55 | -3.82128 | -76.95430 | 35000 ft | 466 kts | 155° |
| 2026-04-20 14:56 | -3.87947 | -76.92677 | 35000 ft | 466 kts | 155° |
| 2026-04-20 14:56 | -3.93771 | -76.89921 | 35000 ft | 466 kts | 155° |
| 2026-04-20 14:57 | -3.99609 | -76.87157 | 35000 ft | 466 kts | 155° |
| 2026-04-20 14:57 | -4.05458 | -76.84388 | 35000 ft | 466 kts | 155° |
| 2026-04-20 14:58 | -4.11294 | -76.81625 | 35000 ft | 466 kts | 155° |
| 2026-04-20 14:58 | -4.17152 | -76.78851 | 35000 ft | 466 kts | 155° |
| 2026-04-20 14:59 | -4.22950 | -76.76104 | 35000 ft | 466 kts | 155° |
| 2026-04-20 14:59 | -4.28808 | -76.73329 | 35000 ft | 466 kts | 155° |
| 2026-04-20 15:00 | -4.34616 | -76.70577 | 35000 ft | 466 kts | 155° |
| 2026-04-20 15:00 | -4.40475 | -76.67801 | 35000 ft | 466 kts | 155° |
| 2026-04-20 15:01 | -4.46286 | -76.65046 | 35000 ft | 466 kts | 155° |
| 2026-04-20 15:01 | -4.52125 | -76.62278 | 35000 ft | 466 kts | 155° |
| 2026-04-20 15:02 | -4.57966 | -76.59508 | 35000 ft | 466 kts | 155° |
| 2026-04-20 15:02 | -4.63790 | -76.56746 | 35000 ft | 466 kts | 155° |
| 2026-04-20 15:03 | -4.69624 | -76.53979 | 35000 ft | 466 kts | 155° |
| 2026-04-20 15:03 | -4.75445 | -76.51218 | 35000 ft | 466 kts | 155° |
| 2026-04-20 15:04 | -4.81275 | -76.48451 | 35000 ft | 466 kts | 155° |
| 2026-04-20 15:04 | -4.87098 | -76.45687 | 35000 ft | 466 kts | 155° |
| 2026-04-20 15:05 | -4.92936 | -76.42916 | 35000 ft | 466 kts | 155° |
| 2026-04-20 15:05 | -4.98766 | -76.40148 | 35000 ft | 466 kts | 155° |
| 2026-04-20 15:06 | -5.04605 | -76.37376 | 35000 ft | 466 kts | 155° |
| 2026-04-20 15:06 | -5.10438 | -76.34605 | 35000 ft | 466 kts | 154° |
| 2026-04-20 15:07 | -5.16276 | -76.31831 | 35000 ft | 466 kts | 154° |
| 2026-04-20 15:07 | -5.22143 | -76.29044 | 35000 ft | 466 kts | 154° |
| 2026-04-20 15:08 | -5.27948 | -76.26286 | 35000 ft | 466 kts | 154° |
| 2026-04-20 15:08 | -5.33796 | -76.23505 | 34999 ft | 466 kts | 154° |
| 2026-04-20 15:09 | -5.39471 | -76.20466 | 35000 ft | 466 kts | 151° |
| 2026-04-20 15:09 | -5.45145 | -76.17374 | 34999 ft | 466 kts | 152° |
| 2026-04-20 15:10 | -5.50830 | -76.14278 | 35000 ft | 466 kts | 152° |
| 2026-04-20 15:10 | -5.56505 | -76.11189 | 35000 ft | 466 kts | 152° |
| 2026-04-20 15:11 | -5.62157 | -76.08113 | 35000 ft | 466 kts | 152° |
| 2026-04-20 15:11 | -5.67828 | -76.05026 | 35000 ft | 466 kts | 152° |
| 2026-04-20 15:12 | -5.73500 | -76.01937 | 35000 ft | 466 kts | 152° |
| 2026-04-20 15:12 | -5.79190 | -75.98838 | 35000 ft | 466 kts | 152° |
| 2026-04-20 15:13 | -5.84855 | -75.95752 | 35000 ft | 466 kts | 152° |
| 2026-04-20 15:13 | -5.90537 | -75.92656 | 35000 ft | 466 kts | 152° |
| 2026-04-20 15:14 | -5.96186 | -75.89578 | 35000 ft | 466 kts | 152° |
| 2026-04-20 15:14 | -6.01849 | -75.86490 | 35000 ft | 466 kts | 152° |
| 2026-04-20 15:15 | -6.07533 | -75.83391 | 35000 ft | 466 kts | 152° |
| 2026-04-20 15:15 | -6.13216 | -75.80291 | 35000 ft | 466 kts | 152° |
| 2026-04-20 15:16 | -6.18884 | -75.77200 | 35000 ft | 466 kts | 152° |
| 2026-04-20 15:16 | -6.24575 | -75.74094 | 35000 ft | 466 kts | 152° |
| 2026-04-20 15:17 | -6.30236 | -75.71004 | 35000 ft | 466 kts | 152° |
| 2026-04-20 15:17 | -6.35889 | -75.67918 | 35000 ft | 466 kts | 152° |
| 2026-04-20 15:18 | -6.41570 | -75.64816 | 35000 ft | 466 kts | 152° |
| 2026-04-20 15:18 | -6.47229 | -75.61724 | 35000 ft | 466 kts | 152° |
| 2026-04-20 15:19 | -6.52907 | -75.58622 | 35000 ft | 466 kts | 152° |
| 2026-04-20 15:19 | -6.58577 | -75.55524 | 35000 ft | 466 kts | 152° |
| 2026-04-20 15:20 | -6.64248 | -75.52424 | 35000 ft | 466 kts | 152° |
| 2026-04-20 15:20 | -6.69895 | -75.49335 | 35000 ft | 466 kts | 152° |
| 2026-04-20 15:21 | -6.75587 | -75.46223 | 35000 ft | 466 kts | 152° |
| 2026-04-20 15:21 | -6.81259 | -75.43119 | 35000 ft | 466 kts | 152° |
| 2026-04-20 15:22 | -6.86919 | -75.40022 | 35000 ft | 466 kts | 152° |
| 2026-04-20 15:22 | -6.92577 | -75.36925 | 35000 ft | 466 kts | 152° |
| 2026-04-20 15:23 | -6.98258 | -75.33814 | 35000 ft | 466 kts | 151° |
| 2026-04-20 15:23 | -7.03941 | -75.30702 | 35000 ft | 466 kts | 151° |
| 2026-04-20 15:24 | -7.09597 | -75.27604 | 35000 ft | 466 kts | 151° |
| 2026-04-20 15:24 | -7.15270 | -75.24495 | 35000 ft | 466 kts | 151° |
| 2026-04-20 15:25 | -7.20951 | -75.21381 | 35000 ft | 466 kts | 151° |
| 2026-04-20 15:25 | -7.26601 | -75.18282 | 35000 ft | 466 kts | 151° |
| 2026-04-20 15:26 | -7.32293 | -75.15160 | 35000 ft | 466 kts | 151° |
| 2026-04-20 15:26 | -7.37934 | -75.12066 | 35000 ft | 466 kts | 151° |
| 2026-04-20 15:27 | -7.43610 | -75.08951 | 35000 ft | 466 kts | 151° |
| 2026-04-20 15:27 | -7.49265 | -75.05847 | 35000 ft | 466 kts | 151° |
| 2026-04-20 15:28 | -7.54936 | -75.02732 | 35000 ft | 466 kts | 151° |
| 2026-04-20 15:28 | -7.60616 | -74.99613 | 35000 ft | 466 kts | 151° |
| 2026-04-20 15:29 | -7.66265 | -74.96509 | 35000 ft | 466 kts | 151° |
| 2026-04-20 15:29 | -7.71954 | -74.93382 | 35000 ft | 466 kts | 151° |
| 2026-04-20 15:30 | -7.77612 | -74.90272 | 35000 ft | 466 kts | 151° |
| 2026-04-20 15:30 | -7.83273 | -74.87158 | 35000 ft | 466 kts | 151° |
| 2026-04-20 15:31 | -7.88943 | -74.84038 | 35000 ft | 466 kts | 151° |
| 2026-04-20 15:31 | -7.94611 | -74.80920 | 35000 ft | 466 kts | 151° |
| 2026-04-20 15:32 | -8.00270 | -74.77805 | 35000 ft | 466 kts | 151° |
| 2026-04-20 15:32 | -8.05943 | -74.74680 | 35000 ft | 466 kts | 151° |
| 2026-04-20 15:33 | -8.11607 | -74.71561 | 35000 ft | 466 kts | 151° |
| 2026-04-20 15:33 | -8.17264 | -74.68443 | 35000 ft | 466 kts | 151° |
| 2026-04-20 15:34 | -8.22949 | -74.65310 | 35000 ft | 466 kts | 151° |
| 2026-04-20 15:34 | -8.28609 | -74.62189 | 35000 ft | 466 kts | 151° |
| 2026-04-20 15:35 | -8.34283 | -74.59060 | 35000 ft | 466 kts | 151° |
| 2026-04-20 15:35 | -8.39912 | -74.55869 | 35000 ft | 466 kts | 149° |
| 2026-04-20 15:36 | -8.45497 | -74.52544 | 35000 ft | 466 kts | 149° |
| 2026-04-20 15:36 | -8.51047 | -74.49247 | 35000 ft | 466 kts | 149° |
| 2026-04-20 15:37 | -8.56635 | -74.45927 | 35000 ft | 466 kts | 149° |
| 2026-04-20 15:37 | -8.62189 | -74.42626 | 35000 ft | 466 kts | 149° |
| 2026-04-20 15:38 | -8.67760 | -74.39314 | 35000 ft | 466 kts | 149° |
| 2026-04-20 15:38 | -8.73304 | -74.36018 | 35000 ft | 466 kts | 149° |
| 2026-04-20 15:39 | -8.78889 | -74.32695 | 35000 ft | 466 kts | 149° |
| 2026-04-20 15:39 | -8.84457 | -74.29382 | 35000 ft | 466 kts | 149° |
| 2026-04-20 15:40 | -8.90011 | -74.26076 | 35000 ft | 466 kts | 149° |
| 2026-04-20 15:40 | -8.95552 | -74.22777 | 35000 ft | 466 kts | 149° |
| 2026-04-20 15:41 | -9.01143 | -74.19446 | 35000 ft | 466 kts | 149° |
| 2026-04-20 15:41 | -9.06688 | -74.16142 | 35000 ft | 466 kts | 149° |
| 2026-04-20 15:42 | -9.12251 | -74.12825 | 35000 ft | 466 kts | 149° |
| 2026-04-20 15:42 | -9.17819 | -74.09504 | 35000 ft | 466 kts | 149° |
| 2026-04-20 15:43 | -9.23385 | -74.06183 | 35000 ft | 466 kts | 149° |
| 2026-04-20 15:43 | -9.28929 | -74.02875 | 35000 ft | 466 kts | 149° |
| 2026-04-20 15:44 | -9.34485 | -73.99558 | 35000 ft | 466 kts | 149° |
| 2026-04-20 15:44 | -9.40062 | -73.96227 | 35000 ft | 466 kts | 149° |
| 2026-04-20 15:45 | -9.45614 | -73.92909 | 35000 ft | 466 kts | 149° |
| 2026-04-20 15:45 | -9.51162 | -73.89593 | 35000 ft | 466 kts | 149° |
| 2026-04-20 15:46 | -9.56724 | -73.86268 | 35000 ft | 466 kts | 149° |
| 2026-04-20 15:46 | -9.62170 | -73.83010 | 35000 ft | 466 kts | 149° |
| 2026-04-20 15:47 | -9.67717 | -73.79691 | 35000 ft | 466 kts | 149° |
| 2026-04-20 15:47 | -9.73291 | -73.76354 | 35000 ft | 466 kts | 149° |
| 2026-04-20 15:48 | -9.78850 | -73.73025 | 35000 ft | 466 kts | 149° |
| 2026-04-20 15:48 | -9.84386 | -73.69708 | 35000 ft | 466 kts | 149° |
| 2026-04-20 15:49 | -9.89969 | -73.66362 | 35000 ft | 466 kts | 149° |
| 2026-04-20 15:49 | -9.95498 | -73.63047 | 35000 ft | 466 kts | 149° |
| 2026-04-20 15:50 | -10.01080 | -73.59699 | 35000 ft | 466 kts | 149° |
| 2026-04-20 15:50 | -10.06610 | -73.56380 | 35000 ft | 466 kts | 149° |
| 2026-04-20 15:51 | -10.12198 | -73.53025 | 35000 ft | 466 kts | 149° |
| 2026-04-20 15:51 | -10.17746 | -73.49693 | 35000 ft | 466 kts | 149° |
| 2026-04-20 15:52 | -10.23317 | -73.46347 | 35000 ft | 466 kts | 149° |
| 2026-04-20 15:52 | -10.28847 | -73.43023 | 35000 ft | 466 kts | 149° |
| 2026-04-20 15:53 | -10.37184 | -73.38009 | 35000 ft | 466 kts | 149° |
| 2026-04-20 15:53 | -10.42744 | -73.34664 | 35000 ft | 466 kts | 149° |
| 2026-04-20 15:54 | -10.48314 | -73.31311 | 35000 ft | 466 kts | 149° |
| 2026-04-20 15:54 | -10.53835 | -73.27986 | 35000 ft | 466 kts | 149° |
| 2026-04-20 15:55 | -10.59398 | -73.24635 | 35000 ft | 466 kts | 149° |
| 2026-04-20 15:55 | -10.64969 | -73.21277 | 35000 ft | 466 kts | 149° |
| 2026-04-20 15:56 | -10.70488 | -73.17950 | 35000 ft | 466 kts | 149° |
| 2026-04-20 15:56 | -10.76052 | -73.14593 | 35000 ft | 466 kts | 149° |
| 2026-04-20 15:57 | -10.81612 | -73.11237 | 35000 ft | 466 kts | 149° |
| 2026-04-20 15:57 | -10.87169 | -73.07883 | 35000 ft | 466 kts | 149° |
| 2026-04-20 15:58 | -10.92682 | -73.04552 | 35000 ft | 466 kts | 149° |
| 2026-04-20 15:58 | -10.98238 | -73.01196 | 35000 ft | 466 kts | 149° |
| 2026-04-20 15:59 | -11.03778 | -72.97846 | 35000 ft | 466 kts | 149° |
| 2026-04-20 15:59 | -11.09349 | -72.94477 | 35000 ft | 466 kts | 149° |
| 2026-04-20 16:00 | -11.14920 | -72.91106 | 35000 ft | 466 kts | 149° |
| 2026-04-20 16:00 | -11.20435 | -72.87768 | 35000 ft | 466 kts | 149° |
| 2026-04-20 16:01 | -11.25992 | -72.84402 | 35000 ft | 466 kts | 149° |
| 2026-04-20 16:01 | -11.31564 | -72.81027 | 35000 ft | 466 kts | 149° |
| 2026-04-20 16:02 | -11.37077 | -72.77684 | 35000 ft | 466 kts | 149° |
| 2026-04-20 16:02 | -11.42649 | -72.74305 | 35000 ft | 466 kts | 149° |
| 2026-04-20 16:03 | -11.48168 | -72.70956 | 35000 ft | 466 kts | 149° |
| 2026-04-20 16:03 | -11.53733 | -72.67578 | 35000 ft | 466 kts | 149° |
| 2026-04-20 16:04 | -11.59264 | -72.64220 | 35000 ft | 466 kts | 149° |
| 2026-04-20 16:04 | -11.64803 | -72.60854 | 35000 ft | 466 kts | 149° |
| 2026-04-20 16:05 | -11.70358 | -72.57477 | 35000 ft | 466 kts | 149° |
| 2026-04-20 16:05 | -11.76811 | -72.53552 | 35000 ft | 466 kts | 149° |
| 2026-04-20 16:06 | -11.81463 | -72.50723 | 35000 ft | 466 kts | 149° |
| 2026-04-20 16:06 | -11.86978 | -72.47365 | 35000 ft | 466 kts | 149° |
| 2026-04-20 16:07 | -11.92554 | -72.43969 | 35000 ft | 466 kts | 149° |
| 2026-04-20 16:07 | -11.98064 | -72.40611 | 35000 ft | 466 kts | 149° |
| 2026-04-20 16:08 | -12.03605 | -72.37233 | 35000 ft | 466 kts | 149° |
| 2026-04-20 16:08 | -12.09170 | -72.33839 | 35000 ft | 466 kts | 149° |
| 2026-04-20 16:09 | -12.14742 | -72.30439 | 35000 ft | 466 kts | 149° |
| 2026-04-20 16:09 | -12.20279 | -72.27059 | 35000 ft | 466 kts | 149° |
| 2026-04-20 16:10 | -12.25834 | -72.23666 | 35000 ft | 466 kts | 149° |
| 2026-04-20 16:10 | -12.31370 | -72.20283 | 35000 ft | 466 kts | 149° |
| 2026-04-20 16:11 | -12.36927 | -72.16887 | 34999 ft | 466 kts | 149° |
| 2026-04-20 16:11 | -12.42750 | -72.14050 | 35000 ft | 466 kts | 156° |
| 2026-04-20 16:12 | -12.48646 | -72.11377 | 34999 ft | 465 kts | 156° |
| 2026-04-20 16:12 | -12.54535 | -72.08715 | 35000 ft | 465 kts | 156° |
| 2026-04-20 16:13 | -12.57480 | -72.07385 | 34990 ft | 454 kts | 156° |
| 2026-04-20 16:13 | -12.60311 | -72.06107 | 34731 ft | 445 kts | 156° |
| 2026-04-20 16:13 | -12.63105 | -72.04844 | 34205 ft | 442 kts | 156° |
| 2026-04-20 16:13 | -12.65912 | -72.03576 | 33716 ft | 438 kts | 156° |
| 2026-04-20 16:14 | -12.68679 | -72.02326 | 33253 ft | 437 kts | 156° |
| 2026-04-20 16:14 | -12.71437 | -72.01080 | 32799 ft | 439 kts | 156° |
| 2026-04-20 16:14 | -12.74241 | -71.99812 | 32342 ft | 441 kts | 156° |
| 2026-04-20 16:14 | -12.77053 | -71.98541 | 31898 ft | 441 kts | 156° |
| 2026-04-20 16:15 | -12.79848 | -71.97277 | 31457 ft | 442 kts | 156° |
| 2026-04-20 16:15 | -12.82640 | -71.96014 | 31016 ft | 443 kts | 156° |
| 2026-04-20 16:15 | -12.85462 | -71.94737 | 30571 ft | 444 kts | 156° |
| 2026-04-20 16:15 | -12.88289 | -71.93458 | 30124 ft | 445 kts | 156° |
| 2026-04-20 16:16 | -12.91101 | -71.92185 | 29680 ft | 445 kts | 156° |
| 2026-04-20 16:16 | -12.93896 | -71.90919 | 29234 ft | 442 kts | 156° |
| 2026-04-20 16:16 | -12.96711 | -71.89643 | 28784 ft | 438 kts | 156° |
| 2026-04-20 16:17 | -13.02820 | -71.86876 | 27812 ft | 432 kts | 156° |
| 2026-04-20 16:17 | -13.05551 | -71.85638 | 27378 ft | 429 kts | 156° |
| 2026-04-20 16:17 | -13.08280 | -71.84402 | 26944 ft | 426 kts | 156° |
| 2026-04-20 16:17 | -13.10986 | -71.83174 | 26514 ft | 424 kts | 156° |
| 2026-04-20 16:18 | -13.13665 | -71.81960 | 26089 ft | 421 kts | 156° |
| 2026-04-20 16:18 | -13.16336 | -71.80747 | 25665 ft | 418 kts | 156° |
| 2026-04-20 16:18 | -13.18968 | -71.79553 | 25248 ft | 415 kts | 156° |
| 2026-04-20 16:18 | -13.21587 | -71.78365 | 24833 ft | 413 kts | 156° |
| 2026-04-20 16:19 | -13.24224 | -71.77168 | 24415 ft | 410 kts | 156° |
| 2026-04-20 16:19 | -13.26816 | -71.75990 | 24004 ft | 408 kts | 156° |
| 2026-04-20 16:19 | -13.29374 | -71.74828 | 23599 ft | 405 kts | 156° |
| 2026-04-20 16:19 | -13.31938 | -71.73663 | 23194 ft | 402 kts | 156° |
| 2026-04-20 16:20 | -13.34493 | -71.72503 | 22789 ft | 400 kts | 156° |
| 2026-04-20 16:20 | -13.37015 | -71.71356 | 22390 ft | 398 kts | 156° |
| 2026-04-20 16:20 | -13.39549 | -71.70204 | 21989 ft | 395 kts | 156° |
| 2026-04-20 16:20 | -13.42030 | -71.69076 | 21597 ft | 393 kts | 156° |
| 2026-04-20 16:21 | -13.44528 | -71.67940 | 21202 ft | 390 kts | 156° |
| 2026-04-20 16:21 | -13.46989 | -71.66820 | 20813 ft | 388 kts | 156° |
| 2026-04-20 16:21 | -13.49445 | -71.65702 | 20424 ft | 386 kts | 156° |
| 2026-04-20 16:21 | -13.51882 | -71.64593 | 20039 ft | 384 kts | 156° |
| 2026-04-20 16:22 | -13.54318 | -71.63484 | 19654 ft | 381 kts | 156° |
| 2026-04-20 16:22 | -13.56751 | -71.62380 | 19236 ft | 380 kts | 157° |
| 2026-04-20 16:22 | -13.59271 | -71.61604 | 18509 ft | 385 kts | 172° |
| 2026-04-20 16:22 | -13.61898 | -71.61519 | 17772 ft | 377 kts | 187° |
| 2026-04-20 16:23 | -13.64417 | -71.62148 | 17052 ft | 369 kts | 202° |
| 2026-04-20 16:23 | -13.66588 | -71.63435 | 16602 ft | 360 kts | 219° |
| 2026-04-20 16:23 | -13.68286 | -71.65273 | 16345 ft | 362 kts | 235° |
| 2026-04-20 16:23 | -13.69448 | -71.67590 | 16136 ft | 362 kts | 252° |
| 2026-04-20 16:24 | -13.69922 | -71.70108 | 15977 ft | 355 kts | 268° |
| 2026-04-20 16:24 | -13.69694 | -71.72540 | 15843 ft | 332 kts | 285° |
| 2026-04-20 16:24 | -13.68844 | -71.74597 | 15724 ft | 304 kts | 304° |
| 2026-04-20 16:24 | -13.67441 | -71.76166 | 15664 ft | 296 kts | 323° |
| 2026-04-20 16:25 | -13.65717 | -71.77349 | 15583 ft | 301 kts | 329° |
| 2026-04-20 16:25 | -13.63891 | -71.78365 | 15213 ft | 302 kts | 334° |
| 2026-04-20 16:25 | -13.61968 | -71.79289 | 14606 ft | 304 kts | 336° |
| 2026-04-20 16:25 | -13.60143 | -71.80193 | 14465 ft | 278 kts | 332° |
| 2026-04-20 16:26 | -13.58583 | -71.81078 | 14598 ft | 239 kts | 329° |
| 2026-04-20 16:26 | -13.57301 | -71.82063 | 14547 ft | 224 kts | 317° |
| 2026-04-20 16:26 | -13.56313 | -71.83224 | 14469 ft | 209 kts | 304° |
| 2026-04-20 16:26 | -13.55557 | -71.84428 | 14065 ft | 197 kts | 301° |
| 2026-04-20 16:27 | -13.54868 | -71.85623 | 13468 ft | 194 kts | 300° |
| 2026-04-20 16:27 | -13.54276 | -71.86855 | 12825 ft | 193 kts | 289° |
| 2026-04-20 16:27 | -13.54065 | -71.88201 | 12169 ft | 196 kts | 274° |
| 2026-04-20 16:27 | -13.54011 | -71.89589 | 11663 ft | 195 kts | 272° |
| 2026-04-20 16:28 | -13.53880 | -71.90934 | 11159 ft | 187 kts | 276° |
| 2026-04-20 16:28 | -13.53745 | -71.92230 | 10776 ft | 172 kts | 275° |
| 2026-04-20 16:28 | -13.53631 | -71.93356 | 10758 ft | 143 kts | 276° |
| 2026-04-20 16:28 | -13.53547 | -71.94134 | 10797 ft | 77 kts | 276° |
| 2026-04-20 16:29 | -13.53513 | -71.94473 | 10814 ft | 27 kts | 277° |
| 2026-04-20 16:29 | -13.53495 | -71.94641 | 10821 ft | 19 kts | 276° |
| 2026-04-20 16:29 | -13.53484 | -71.94754 | 10828 ft | 11 kts | 276° |
| 2026-04-20 16:29 | -13.53480 | -71.94818 | 10831 ft | 6 kts | 268° |
| 2026-04-20 16:30 | -13.53489 | -71.94875 | 10834 ft | 9 kts | 252° |
| 2026-04-20 16:30 | -13.53525 | -71.94932 | 10839 ft | 10 kts | 221° |
| 2026-04-20 16:30 | -13.53568 | -71.94946 | 10841 ft | 3 kts | 168° |
| 2026-04-20 16:30 | -13.53595 | -71.94926 | 10840 ft | 6 kts | 125° |
| 2026-04-20 16:31 | -13.53608 | -71.94868 | 10837 ft | 10 kts | 96° |
| 2026-04-20 16:31 | -13.53619 | -71.94772 | 10831 ft | 15 kts | 97° |
| 2026-04-20 16:31 | -13.53631 | -71.94649 | 10824 ft | 18 kts | 96° |
| 2026-04-20 16:31 | -13.53645 | -71.94515 | 10816 ft | 19 kts | 96° |
| 2026-04-20 16:32 | -13.53656 | -71.94404 | 10810 ft | 13 kts | 96° |
| 2026-04-20 16:32 | -13.53662 | -71.94340 | 10806 ft | 8 kts | 96° |
| 2026-04-20 16:32 | -13.53670 | -71.94280 | 10803 ft | 8 kts | 111° |
| 2026-04-20 16:32 | -13.53696 | -71.94266 | 10803 ft | 2 kts | 186° |
| 2026-04-20 16:33 | -13.53700 | -71.94267 | 10803 ft | 0 kts | 207° |
| 2026-04-20 16:33 | -13.53704 | -71.94271 | 10803 ft | 1 kts | 227° |
| 2026-04-20 16:33 | -13.53717 | -71.94297 | 10805 ft | 3 kts | 249° |
| 2026-04-20 16:33 | -13.53720 | -71.94308 | 10805 ft | 1 kts | 256° |
| 2026-04-20 16:34 | -13.53721 | -71.94312 | 10806 ft | 1 kts | 256° |
| 2026-04-20 16:34 | -13.53722 | -71.94317 | 10806 ft | 0 kts | 256° |